createdAt,value
2018-07-12T00:00:10.771Z,15.10
2018-07-12T00:01:05.326Z,15.10
2018-07-12T00:02:06.402Z,15.10
2018-07-12T00:03:05.404Z,15.10
2018-07-12T00:04:05.339Z,15.10
2018-07-12T00:05:05.705Z,15.10
2018-07-12T00:06:05.214Z,15.10
2018-07-12T00:07:05.147Z,15.10
2018-07-12T00:08:08.569Z,15.10
2018-07-12T00:09:06.161Z,15.00
2018-07-12T00:10:05.959Z,15.10
2018-07-12T00:11:06.193Z,15.10
2018-07-12T00:12:06.004Z,15.00
2018-07-12T00:13:05.245Z,15.00
2018-07-12T00:14:09.102Z,15.00
2018-07-12T00:15:05.538Z,15.00
2018-07-12T00:16:09.147Z,15.00
2018-07-12T00:17:10.600Z,15.00
2018-07-12T00:18:05.279Z,15.00
2018-07-12T00:19:06.057Z,15.00
2018-07-12T00:20:05.392Z,15.00
2018-07-12T00:21:06.020Z,15.00
2018-07-12T00:22:05.785Z,14.90
2018-07-12T00:23:06.063Z,15.00
2018-07-12T00:24:09.168Z,15.00
2018-07-12T00:25:05.683Z,14.90
2018-07-12T00:26:08.342Z,15.00
2018-07-12T00:27:08.356Z,15.00
2018-07-12T00:28:05.783Z,15.00
2018-07-12T00:29:10.310Z,15.00
2018-07-12T00:30:08.577Z,15.00
2018-07-12T00:31:11.104Z,15.00
2018-07-12T00:32:10.275Z,15.00
2018-07-12T00:33:05.378Z,15.00
2018-07-12T00:34:05.635Z,15.00
2018-07-12T00:35:05.595Z,15.00
2018-07-12T00:36:07.751Z,15.00
2018-07-12T00:37:05.130Z,15.00
2018-07-12T00:38:06.256Z,15.00
2018-07-12T00:39:05.403Z,15.00
2018-07-12T00:40:05.435Z,15.00
2018-07-12T00:41:05.073Z,15.10
2018-07-12T00:42:08.735Z,15.00
2018-07-12T00:43:05.135Z,15.10
2018-07-12T00:44:08.505Z,15.00
2018-07-12T00:45:09.244Z,15.10
2018-07-12T00:46:06.138Z,15.00
2018-07-12T00:47:05.388Z,15.00
2018-07-12T00:48:05.544Z,15.00
2018-07-12T00:49:05.564Z,15.00
2018-07-12T00:50:05.356Z,15.00
2018-07-12T00:51:05.740Z,15.00
2018-07-12T00:52:05.520Z,15.00
2018-07-12T00:53:09.063Z,15.00
2018-07-12T00:54:06.025Z,15.00
2018-07-12T00:55:08.777Z,15.00
2018-07-12T00:56:05.198Z,15.00
2018-07-12T00:57:07.672Z,15.00
2018-07-12T00:58:06.190Z,15.00
2018-07-12T00:59:09.880Z,15.00
2018-07-12T01:00:10.447Z,15.00
2018-07-12T01:01:05.873Z,15.00
2018-07-12T01:02:05.954Z,15.00
2018-07-12T01:03:05.251Z,14.90
2018-07-12T01:04:08.415Z,15.00
2018-07-12T01:05:05.463Z,14.90
2018-07-12T01:06:06.039Z,15.00
2018-07-12T01:07:11.037Z,14.90
2018-07-12T01:08:05.531Z,14.90
2018-07-12T01:09:10.649Z,14.90
2018-07-12T01:10:10.385Z,14.90
2018-07-12T01:11:10.452Z,14.90
2018-07-12T01:12:08.671Z,14.80
2018-07-12T01:13:05.118Z,14.90
2018-07-12T01:14:06.256Z,14.90
2018-07-12T01:15:06.060Z,14.80
2018-07-12T01:16:08.005Z,14.80
2018-07-12T01:17:05.513Z,14.80
2018-07-12T01:18:06.050Z,14.90
2018-07-12T01:19:08.724Z,14.80
2018-07-12T01:20:10.471Z,14.80
2018-07-12T01:21:06.025Z,14.80
2018-07-12T01:22:05.762Z,14.90
2018-07-12T01:23:09.079Z,14.80
2018-07-12T01:24:06.601Z,14.80
2018-07-12T01:25:08.414Z,14.80
2018-07-12T01:26:10.009Z,14.80
2018-07-12T01:27:05.717Z,14.80
2018-07-12T01:28:05.574Z,14.80
2018-07-12T01:29:05.902Z,14.80
2018-07-12T01:30:09.293Z,14.80
2018-07-12T01:31:05.866Z,14.80
2018-07-12T01:32:10.779Z,14.80
2018-07-12T01:33:10.239Z,14.70
2018-07-12T01:34:05.560Z,14.80
2018-07-12T01:35:11.081Z,14.80
2018-07-12T01:36:08.928Z,14.80
2018-07-12T01:37:05.642Z,14.70
2018-07-12T01:38:08.989Z,14.80
2018-07-12T01:39:10.524Z,14.70
2018-07-12T01:40:05.835Z,14.70
2018-07-12T01:41:08.451Z,14.70
2018-07-12T01:42:08.798Z,14.70
2018-07-12T01:43:07.890Z,14.60
2018-07-12T01:44:05.373Z,14.60
2018-07-12T01:45:08.214Z,14.60
2018-07-12T01:46:08.172Z,14.60
2018-07-12T01:47:08.115Z,14.60
2018-07-12T01:48:05.986Z,14.60
2018-07-12T01:49:08.466Z,14.60
2018-07-12T01:50:05.954Z,14.50
2018-07-12T01:51:05.510Z,14.50
2018-07-12T01:52:06.505Z,14.60
2018-07-12T01:53:14.286Z,14.50
2018-07-12T01:54:10.156Z,14.50
2018-07-12T01:55:05.466Z,14.60
2018-07-12T01:56:08.290Z,14.50
2018-07-12T01:57:05.674Z,14.50
2018-07-12T01:58:10.138Z,14.50
2018-07-12T01:59:05.072Z,14.50
2018-07-12T02:00:10.764Z,14.50
2018-07-12T02:01:10.893Z,14.50
2018-07-12T02:02:05.379Z,14.40
2018-07-12T02:03:06.296Z,14.40
2018-07-12T02:04:09.088Z,14.40
2018-07-12T02:05:05.551Z,14.40
2018-07-12T02:06:05.782Z,14.40
2018-07-12T02:07:05.181Z,14.30
2018-07-12T02:08:06.081Z,14.40
2018-07-12T02:09:08.270Z,14.30
2018-07-12T02:10:10.860Z,14.30
2018-07-12T02:11:05.052Z,14.30
2018-07-12T02:12:05.714Z,14.30
2018-07-12T02:13:06.019Z,14.30
2018-07-12T02:14:05.402Z,14.20
2018-07-12T02:15:08.642Z,14.20
2018-07-12T02:16:05.080Z,14.20
2018-07-12T02:17:05.310Z,14.10
2018-07-12T02:18:10.193Z,14.10
2018-07-12T02:19:06.341Z,14.10
2018-07-12T02:20:07.944Z,14.10
2018-07-12T02:21:08.655Z,14.10
2018-07-12T02:22:07.640Z,14.00
2018-07-12T02:23:06.161Z,14.00
2018-07-12T02:24:05.716Z,14.00
2018-07-12T02:25:09.070Z,14.00
2018-07-12T02:26:10.624Z,14.00
2018-07-12T02:27:06.058Z,14.00
2018-07-12T02:28:08.857Z,13.90
2018-07-12T02:29:05.458Z,13.90
2018-07-12T02:30:08.666Z,13.90
2018-07-12T02:31:10.120Z,13.90
2018-07-12T02:32:08.837Z,13.90
2018-07-12T02:33:10.371Z,13.90
2018-07-12T02:34:09.226Z,13.90
2018-07-12T02:35:08.409Z,13.80
2018-07-12T02:36:06.084Z,13.80
2018-07-12T02:37:05.219Z,13.80
2018-07-12T02:38:08.265Z,13.80
2018-07-12T02:39:05.695Z,13.80
2018-07-12T02:40:10.444Z,13.80
2018-07-12T02:41:05.931Z,13.80
2018-07-12T02:42:05.598Z,13.80
2018-07-12T02:43:07.001Z,13.80
2018-07-12T02:44:05.855Z,13.80
2018-07-12T02:45:10.752Z,13.80
2018-07-12T02:46:05.960Z,13.80
2018-07-12T02:47:10.731Z,13.70
2018-07-12T02:48:11.001Z,13.70
2018-07-12T02:49:05.105Z,13.70
2018-07-12T02:50:05.713Z,13.70
2018-07-12T02:51:08.078Z,13.70
2018-07-12T02:52:05.485Z,13.60
2018-07-12T02:53:05.981Z,13.60
2018-07-12T02:54:11.184Z,13.60
2018-07-12T02:55:05.928Z,13.60
2018-07-12T02:56:05.090Z,13.60
2018-07-12T02:57:08.347Z,13.50
2018-07-12T02:58:05.716Z,13.50
2018-07-12T02:59:10.431Z,13.40
2018-07-12T03:00:05.696Z,13.40
2018-07-12T03:01:05.649Z,13.40
2018-07-12T03:02:05.220Z,13.30
2018-07-12T03:03:05.802Z,13.30
2018-07-12T03:04:05.959Z,13.30
2018-07-12T03:05:10.789Z,13.20
2018-07-12T03:06:05.335Z,13.20
2018-07-12T03:07:05.956Z,13.20
2018-07-12T03:08:05.303Z,13.20
2018-07-12T03:09:05.700Z,13.20
2018-07-12T03:10:08.496Z,13.20
2018-07-12T03:11:08.509Z,13.10
2018-07-12T03:12:09.244Z,13.10
2018-07-12T03:13:10.801Z,13.10
2018-07-12T03:14:05.319Z,13.10
2018-07-12T03:15:06.391Z,13.10
2018-07-12T03:16:05.255Z,13.10
2018-07-12T03:17:05.852Z,13.00
2018-07-12T03:18:05.492Z,13.00
2018-07-12T03:19:05.188Z,13.00
2018-07-12T03:20:05.867Z,13.00
2018-07-12T03:21:10.581Z,13.00
2018-07-12T03:22:05.973Z,13.00
2018-07-12T03:23:10.802Z,13.00
2018-07-12T03:24:09.526Z,13.00
2018-07-12T03:25:09.373Z,13.00
2018-07-12T03:26:08.990Z,12.90
2018-07-12T03:27:05.609Z,13.00
2018-07-12T03:28:05.348Z,13.00
2018-07-12T03:29:06.146Z,13.00
2018-07-12T03:30:06.036Z,13.00
2018-07-12T03:31:08.666Z,12.90
2018-07-12T03:32:07.668Z,12.90
2018-07-12T03:33:06.229Z,12.90
2018-07-12T03:34:06.048Z,12.90
2018-07-12T03:35:10.087Z,12.90
2018-07-12T03:36:07.592Z,12.80
2018-07-12T03:37:05.960Z,12.80
2018-07-12T03:38:08.915Z,12.80
2018-07-12T03:39:10.368Z,12.70
2018-07-12T03:40:05.865Z,12.80
2018-07-12T03:41:10.428Z,12.70
2018-07-12T03:42:05.687Z,12.70
2018-07-12T03:43:05.607Z,12.80
2018-07-12T03:44:05.201Z,12.80
2018-07-12T03:45:08.732Z,12.80
2018-07-12T03:46:05.176Z,12.70
2018-07-12T03:47:05.532Z,12.80
2018-07-12T03:48:05.680Z,12.80
2018-07-12T03:49:05.682Z,12.70
2018-07-12T03:50:05.179Z,12.80
2018-07-12T03:51:10.916Z,12.80
2018-07-12T03:52:06.049Z,12.80
2018-07-12T03:53:06.431Z,12.80
2018-07-12T03:54:05.852Z,12.80
2018-07-12T03:55:05.635Z,12.80
2018-07-12T03:56:05.766Z,12.80
2018-07-12T03:57:10.737Z,12.80
2018-07-12T03:58:05.881Z,12.80
2018-07-12T03:59:06.044Z,12.80
2018-07-12T04:00:05.938Z,12.80
2018-07-12T04:01:05.621Z,12.90
2018-07-12T04:02:05.909Z,12.90
2018-07-12T04:03:08.388Z,12.90
2018-07-12T04:04:05.728Z,12.90
2018-07-12T04:05:08.000Z,13.00
2018-07-12T04:06:05.953Z,13.00
2018-07-12T04:07:08.575Z,13.00
2018-07-12T04:08:10.181Z,13.00
2018-07-12T04:09:05.359Z,13.00
2018-07-12T04:10:10.404Z,13.10
2018-07-12T04:11:05.362Z,13.10
2018-07-12T04:12:11.138Z,13.10
2018-07-12T04:13:05.257Z,13.10
2018-07-12T04:14:05.756Z,13.20
2018-07-12T04:15:09.169Z,13.10
2018-07-12T04:16:10.611Z,13.20
2018-07-12T04:17:05.119Z,13.10
2018-07-12T04:18:05.229Z,13.10
2018-07-12T04:19:08.387Z,13.10
2018-07-12T04:20:06.079Z,13.10
2018-07-12T04:21:09.032Z,13.10
2018-07-12T04:22:08.750Z,13.10
2018-07-12T04:23:05.539Z,13.10
2018-07-12T04:24:11.250Z,13.10
2018-07-12T04:25:06.559Z,13.10
2018-07-12T04:26:07.686Z,13.20
2018-07-12T04:27:09.013Z,13.10
2018-07-12T04:28:10.869Z,13.10
2018-07-12T04:29:05.047Z,13.10
2018-07-12T04:30:06.369Z,13.10
2018-07-12T04:31:08.355Z,13.20
2018-07-12T04:32:05.718Z,13.20
2018-07-12T04:33:10.440Z,13.20
2018-07-12T04:34:10.798Z,13.20
2018-07-12T04:35:05.221Z,13.20
2018-07-12T04:36:10.762Z,13.20
2018-07-12T04:37:05.151Z,13.30
2018-07-12T04:38:06.187Z,13.30
2018-07-12T04:39:05.631Z,13.30
2018-07-12T04:40:05.715Z,13.30
2018-07-12T04:41:05.621Z,13.30
2018-07-12T04:42:05.536Z,13.40
2018-07-12T04:43:09.176Z,13.40
2018-07-12T04:44:05.633Z,13.50
2018-07-12T04:45:05.950Z,13.50
2018-07-12T04:46:05.413Z,13.50
2018-07-12T04:47:08.293Z,13.60
2018-07-12T04:48:08.653Z,13.60
2018-07-12T04:49:05.820Z,13.60
2018-07-12T04:50:08.232Z,13.70
2018-07-12T04:51:08.955Z,13.70
2018-07-12T04:52:10.490Z,13.80
2018-07-12T04:53:05.907Z,13.70
2018-07-12T04:54:06.072Z,13.80
2018-07-12T04:55:05.997Z,13.80
2018-07-12T04:56:10.899Z,13.90
2018-07-12T04:57:05.429Z,13.80
2018-07-12T04:58:10.147Z,13.90
2018-07-12T04:59:05.631Z,13.90
2018-07-12T05:00:08.972Z,13.90
2018-07-12T05:01:05.824Z,13.80
2018-07-12T05:02:05.821Z,13.90
2018-07-12T05:03:05.832Z,13.90
2018-07-12T05:04:08.120Z,13.90
2018-07-12T05:05:06.525Z,13.90
2018-07-12T05:06:08.532Z,13.90
2018-07-12T05:07:06.254Z,13.90
2018-07-12T05:08:10.245Z,13.90
2018-07-12T05:09:05.651Z,14.00
2018-07-12T05:10:10.470Z,13.90
2018-07-12T05:11:10.603Z,13.90
2018-07-12T05:12:05.711Z,14.00
2018-07-12T05:13:05.062Z,14.00
2018-07-12T05:14:05.681Z,14.00
2018-07-12T05:15:06.005Z,13.90
2018-07-12T05:16:05.558Z,14.00
2018-07-12T05:17:10.192Z,13.90
2018-07-12T05:18:05.173Z,13.90
2018-07-12T05:19:05.632Z,13.90
2018-07-12T05:20:05.930Z,13.90
2018-07-12T05:21:05.779Z,13.90
2018-07-12T05:22:08.604Z,13.90
2018-07-12T05:23:06.416Z,13.90
2018-07-12T05:24:05.428Z,14.00
2018-07-12T05:25:10.081Z,14.00
2018-07-12T05:26:08.728Z,14.00
2018-07-12T05:27:05.421Z,14.00
2018-07-12T05:28:05.510Z,14.00
2018-07-12T05:29:11.065Z,14.00
2018-07-12T05:30:05.848Z,14.00
2018-07-12T05:31:05.186Z,14.00
2018-07-12T05:32:05.899Z,14.10
2018-07-12T05:33:06.437Z,14.10
2018-07-12T05:34:09.010Z,14.10
2018-07-12T05:35:10.561Z,14.10
2018-07-12T05:36:06.418Z,14.10
2018-07-12T05:37:05.881Z,14.10
2018-07-12T05:38:05.479Z,14.10
2018-07-12T05:39:05.931Z,14.10
2018-07-12T05:40:06.054Z,14.20
2018-07-12T05:41:08.474Z,14.20
2018-07-12T05:42:06.128Z,14.20
2018-07-12T05:43:05.179Z,14.20
2018-07-12T05:44:10.622Z,14.20
2018-07-12T05:45:10.242Z,14.30
2018-07-12T05:46:08.330Z,14.30
2018-07-12T05:47:05.671Z,14.30
2018-07-12T05:48:05.252Z,14.30
2018-07-12T05:49:05.042Z,14.30
2018-07-12T05:50:05.396Z,14.40
2018-07-12T05:51:05.507Z,14.40
2018-07-12T05:52:05.919Z,14.40
2018-07-12T05:53:06.382Z,14.40
2018-07-12T05:54:05.335Z,14.50
2018-07-12T05:55:05.249Z,14.50
2018-07-12T05:56:05.689Z,14.50
2018-07-12T05:57:10.569Z,14.50
2018-07-12T05:58:06.031Z,14.60
2018-07-12T05:59:08.434Z,14.60
2018-07-12T06:00:05.495Z,14.60
2018-07-12T06:01:05.796Z,14.60
2018-07-12T06:02:05.442Z,14.60
2018-07-12T06:03:05.559Z,14.70
2018-07-12T06:04:10.868Z,14.80
2018-07-12T06:05:05.924Z,14.70
2018-07-12T06:06:06.774Z,14.80
2018-07-12T06:07:10.699Z,14.80
2018-07-12T06:08:10.742Z,14.80
2018-07-12T06:09:10.756Z,14.90
2018-07-12T06:10:10.964Z,15.00
2018-07-12T06:11:10.394Z,15.00
2018-07-12T06:12:08.775Z,15.00
2018-07-12T06:13:05.608Z,15.00
2018-07-12T06:14:08.734Z,15.10
2018-07-12T06:15:07.990Z,15.20
2018-07-12T06:16:05.118Z,15.10
2018-07-12T06:17:09.265Z,15.20
2018-07-12T06:18:08.900Z,15.30
2018-07-12T06:19:06.454Z,15.30
2018-07-12T06:20:05.905Z,15.40
2018-07-12T06:21:05.348Z,15.40
2018-07-12T06:22:05.697Z,15.40
2018-07-12T06:23:05.736Z,15.50
2018-07-12T06:24:05.730Z,15.50
2018-07-12T06:25:05.159Z,15.50
2018-07-12T06:26:06.019Z,15.50
2018-07-12T06:27:06.021Z,15.60
2018-07-12T06:28:05.102Z,15.60
2018-07-12T06:29:06.140Z,15.60
2018-07-12T06:30:08.531Z,15.60
2018-07-12T06:31:09.142Z,15.70
2018-07-12T06:32:05.715Z,15.70
2018-07-12T06:33:05.602Z,15.70
2018-07-12T06:34:08.525Z,15.80
2018-07-12T06:35:05.914Z,15.80
2018-07-12T06:36:08.677Z,15.90
2018-07-12T06:37:05.147Z,15.90
2018-07-12T06:38:05.282Z,15.90
2018-07-12T06:39:09.282Z,16.00
2018-07-12T06:40:05.665Z,16.00
2018-07-12T06:41:05.625Z,16.00
2018-07-12T06:42:05.241Z,16.00
2018-07-12T06:43:10.571Z,16.00
2018-07-12T06:44:06.061Z,16.00
2018-07-12T06:45:05.877Z,16.10
2018-07-12T06:46:05.216Z,16.10
2018-07-12T06:47:08.567Z,16.00
2018-07-12T06:48:05.782Z,16.10
2018-07-12T06:49:06.429Z,16.00
2018-07-12T06:50:05.704Z,16.10
2018-07-12T06:51:05.770Z,16.10
2018-07-12T06:52:05.233Z,16.10
2018-07-12T06:53:10.598Z,16.10
2018-07-12T06:54:10.771Z,16.10
2018-07-12T06:55:10.842Z,16.10
2018-07-12T06:56:06.111Z,16.10
2018-07-12T06:57:08.558Z,16.00
2018-07-12T06:58:05.867Z,16.10
2018-07-12T06:59:05.707Z,16.10
2018-07-12T07:00:05.668Z,16.00
2018-07-12T07:01:10.526Z,16.00
2018-07-12T07:02:08.007Z,16.00
2018-07-12T07:03:08.451Z,16.00
2018-07-12T07:04:06.323Z,16.00
2018-07-12T07:05:05.464Z,16.00
2018-07-12T07:06:10.454Z,16.10
2018-07-12T07:07:09.115Z,16.10
2018-07-12T07:08:05.535Z,16.10
2018-07-12T07:09:05.882Z,16.10
2018-07-12T07:10:05.821Z,16.20
2018-07-12T07:11:11.132Z,16.20
2018-07-12T07:12:05.128Z,16.20
2018-07-12T07:13:11.813Z,16.20
2018-07-12T07:14:08.421Z,16.20
2018-07-12T07:15:06.156Z,16.20
2018-07-12T07:16:05.715Z,16.30
2018-07-12T07:17:05.303Z,16.30
2018-07-12T07:18:05.946Z,16.30
2018-07-12T07:19:05.782Z,16.30
2018-07-12T07:20:05.224Z,16.40
2018-07-12T07:21:05.951Z,16.40
2018-07-12T07:22:05.294Z,16.40
2018-07-12T07:23:06.016Z,16.50
2018-07-12T07:24:08.231Z,16.50
2018-07-12T07:25:10.599Z,16.50
2018-07-12T07:26:08.281Z,16.60
2018-07-12T07:27:05.783Z,16.60
2018-07-12T07:28:05.561Z,16.60
2018-07-12T07:29:05.862Z,16.70
2018-07-12T07:30:05.247Z,16.70
2018-07-12T07:31:05.950Z,16.80
2018-07-12T07:32:05.511Z,16.90
2018-07-12T07:33:08.717Z,17.10
2018-07-12T07:34:10.066Z,17.00
2018-07-12T07:35:06.573Z,17.10
2018-07-12T07:36:09.117Z,17.20
2018-07-12T07:37:05.488Z,17.20
2018-07-12T07:38:05.369Z,17.20
2018-07-12T07:39:08.533Z,17.30
2018-07-12T07:40:06.030Z,17.30
2018-07-12T07:41:06.116Z,17.20
2018-07-12T07:42:08.036Z,17.20
2018-07-12T07:43:07.666Z,17.20
2018-07-12T07:44:05.342Z,17.20
2018-07-12T07:45:05.816Z,17.20
2018-07-12T07:46:09.024Z,17.20
2018-07-12T07:47:10.507Z,17.20
2018-07-12T07:48:05.203Z,17.10
2018-07-12T07:49:06.052Z,17.20
2018-07-12T07:50:10.705Z,17.20
2018-07-12T07:51:06.011Z,17.20
2018-07-12T07:52:05.583Z,17.20
2018-07-12T07:53:08.984Z,17.20
2018-07-12T07:54:08.736Z,17.30
2018-07-12T07:55:07.756Z,17.30
2018-07-12T07:56:10.529Z,17.30
2018-07-12T07:57:05.708Z,17.30
2018-07-12T07:58:05.257Z,17.30
2018-07-12T07:59:10.851Z,17.40
2018-07-12T08:00:07.786Z,17.40
2018-07-12T08:01:05.176Z,17.40
2018-07-12T08:02:06.272Z,17.40
2018-07-12T08:03:05.741Z,17.40
2018-07-12T08:04:05.746Z,17.50
2018-07-12T08:05:09.130Z,17.50
2018-07-12T08:06:13.729Z,17.50
2018-07-12T08:07:05.229Z,17.50
2018-07-12T08:08:06.116Z,17.50
2018-07-12T08:09:05.264Z,17.50
2018-07-12T08:10:06.089Z,17.50
2018-07-12T08:11:08.248Z,17.50
2018-07-12T08:12:05.663Z,17.40
2018-07-12T08:13:05.701Z,17.50
2018-07-12T08:14:05.628Z,17.50
2018-07-12T08:15:12.772Z,17.50
2018-07-12T08:16:05.154Z,17.50
2018-07-12T08:17:10.215Z,17.50
2018-07-12T08:18:08.830Z,17.50
2018-07-12T08:19:05.341Z,17.50
2018-07-12T08:20:11.110Z,17.50
2018-07-12T08:21:05.245Z,17.50
2018-07-12T08:22:05.556Z,17.50
2018-07-12T08:23:05.200Z,17.60
2018-07-12T08:24:09.132Z,17.60
2018-07-12T08:25:05.811Z,17.60
2018-07-12T08:26:05.322Z,17.60
2018-07-12T08:27:05.862Z,17.60
2018-07-12T08:28:05.577Z,17.70
2018-07-12T08:29:09.807Z,17.70
2018-07-12T08:30:05.625Z,17.70
2018-07-12T08:31:05.470Z,17.60
2018-07-12T08:32:09.435Z,17.70
2018-07-12T08:33:05.910Z,17.70
2018-07-12T08:34:05.709Z,17.70
2018-07-12T08:35:05.547Z,17.70
2018-07-12T08:36:10.533Z,17.70
2018-07-12T08:37:10.908Z,17.70
2018-07-12T08:38:08.734Z,17.80
2018-07-12T08:39:10.021Z,17.80
2018-07-12T08:40:05.381Z,17.80
2018-07-12T08:41:05.328Z,17.80
2018-07-12T08:42:05.987Z,17.90
2018-07-12T08:43:11.011Z,18.00
2018-07-12T08:44:05.907Z,18.00
2018-07-12T08:45:05.984Z,18.00
2018-07-12T08:46:08.067Z,18.10
2018-07-12T08:47:05.443Z,18.10
2018-07-12T08:48:09.197Z,18.20
2018-07-12T08:49:08.490Z,18.20
2018-07-12T08:50:05.970Z,18.20
2018-07-12T08:51:05.661Z,18.20
2018-07-12T08:52:05.167Z,18.20
2018-07-12T08:53:10.498Z,18.30
2018-07-12T08:54:08.544Z,18.30
2018-07-12T08:55:10.861Z,18.30
2018-07-12T08:56:05.344Z,18.30
2018-07-12T08:57:08.265Z,18.30
2018-07-12T08:58:05.718Z,18.30
2018-07-12T08:59:08.219Z,18.30
2018-07-12T09:00:05.881Z,18.30
2018-07-12T09:01:08.257Z,18.30
2018-07-12T09:02:05.954Z,18.20
2018-07-12T09:03:06.669Z,18.30
2018-07-12T09:04:05.702Z,18.20
2018-07-12T09:05:06.155Z,18.20
2018-07-12T09:06:08.353Z,18.20
2018-07-12T09:07:09.169Z,18.20
2018-07-12T09:08:05.537Z,18.20
2018-07-12T09:09:05.659Z,18.20
2018-07-12T09:10:05.767Z,18.10
2018-07-12T09:11:10.113Z,18.00
2018-07-12T09:12:08.089Z,18.10
2018-07-12T09:13:10.818Z,18.00
2018-07-12T09:14:05.284Z,18.00
2018-07-12T09:15:09.373Z,18.00
2018-07-12T09:16:05.856Z,17.90
2018-07-12T09:17:08.544Z,17.90
2018-07-12T09:18:05.936Z,17.90
2018-07-12T09:19:05.554Z,17.90
2018-07-12T09:20:05.065Z,17.90
2018-07-12T09:21:05.334Z,17.90
2018-07-12T09:22:11.118Z,17.80
2018-07-12T09:23:05.133Z,17.80
2018-07-12T09:24:05.274Z,17.80
2018-07-12T09:25:05.640Z,17.90
2018-07-12T09:26:05.888Z,17.80
2018-07-12T09:27:08.401Z,17.80
2018-07-12T09:28:08.268Z,17.80
2018-07-12T09:29:10.655Z,17.80
2018-07-12T09:30:08.492Z,17.80
2018-07-12T09:31:08.510Z,17.90
2018-07-12T09:32:11.062Z,17.80
2018-07-12T09:33:06.146Z,17.80
2018-07-12T09:34:05.965Z,17.90
2018-07-12T09:35:08.999Z,17.80
2018-07-12T09:36:05.448Z,17.90
2018-07-12T09:37:08.649Z,17.90
2018-07-12T09:38:08.598Z,17.90
2018-07-12T09:39:06.040Z,17.80
2018-07-12T09:40:10.790Z,17.90
2018-07-12T09:41:05.179Z,17.90
2018-07-12T09:42:08.662Z,17.90
2018-07-12T09:43:05.131Z,17.90
2018-07-12T09:44:05.403Z,17.90
2018-07-12T09:45:05.156Z,18.00
2018-07-12T09:46:05.634Z,18.00
2018-07-12T09:47:06.009Z,18.00
2018-07-12T09:48:05.202Z,18.00
2018-07-12T09:49:11.220Z,18.00
2018-07-12T09:50:08.669Z,18.00
2018-07-12T09:51:05.028Z,18.10
2018-07-12T09:52:11.093Z,18.10
2018-07-12T09:53:05.419Z,18.10
2018-07-12T09:54:05.661Z,18.10
2018-07-12T09:55:05.685Z,18.10
2018-07-12T09:56:05.217Z,18.20
2018-07-12T09:57:05.891Z,18.20
2018-07-12T09:58:10.669Z,18.20
2018-07-12T09:59:10.829Z,18.20
2018-07-12T10:00:10.932Z,18.30
2018-07-12T10:01:11.161Z,18.30
2018-07-12T10:02:08.971Z,18.30
2018-07-12T10:03:05.359Z,18.30
2018-07-12T10:04:08.718Z,18.40
2018-07-12T10:05:05.669Z,18.40
2018-07-12T10:06:08.879Z,18.40
2018-07-12T10:07:05.243Z,18.50
2018-07-12T10:08:05.344Z,18.50
2018-07-12T10:09:08.401Z,18.50
2018-07-12T10:10:05.816Z,18.50
2018-07-12T10:11:08.455Z,18.60
2018-07-12T10:12:06.468Z,18.50
2018-07-12T10:13:05.906Z,18.60
2018-07-12T10:14:10.632Z,18.70
2018-07-12T10:15:08.570Z,18.80
2018-07-12T10:16:05.996Z,18.80
2018-07-12T10:17:05.469Z,18.80
2018-07-12T10:18:06.246Z,18.90
2018-07-12T10:19:05.678Z,18.90
2018-07-12T10:20:06.141Z,19.00
2018-07-12T10:21:05.275Z,19.00
2018-07-12T10:22:10.874Z,19.10
2018-07-12T10:23:08.815Z,19.20
2018-07-12T10:24:05.176Z,19.10
2018-07-12T10:25:05.212Z,19.20
2018-07-12T10:26:05.652Z,19.20
2018-07-12T10:27:06.002Z,19.20
2018-07-12T10:28:08.533Z,19.30
2018-07-12T10:29:08.259Z,19.30
2018-07-12T10:30:08.117Z,19.40
2018-07-12T10:31:05.452Z,19.40
2018-07-12T10:32:05.592Z,19.40
2018-07-12T10:33:05.878Z,19.50
2018-07-12T10:34:05.432Z,19.60
2018-07-12T10:35:05.848Z,19.60
2018-07-12T10:36:05.356Z,19.60
2018-07-12T10:37:05.516Z,19.60
2018-07-12T10:38:05.918Z,19.70
2018-07-12T10:39:05.973Z,19.70
2018-07-12T10:40:05.322Z,19.70
2018-07-12T10:41:08.623Z,19.70
2018-07-12T10:42:08.670Z,19.70
2018-07-12T10:43:06.090Z,19.70
2018-07-12T10:44:10.754Z,19.70
2018-07-12T10:45:06.036Z,19.70
2018-07-12T10:46:05.535Z,19.70
2018-07-12T10:47:05.076Z,19.70
2018-07-12T10:48:08.028Z,19.80
2018-07-12T10:49:09.105Z,19.80
2018-07-12T10:50:05.685Z,19.80
2018-07-12T10:51:05.671Z,19.80
2018-07-12T10:52:08.467Z,19.80
2018-07-12T10:53:05.918Z,19.80
2018-07-12T10:54:08.936Z,19.90
2018-07-12T10:55:05.380Z,19.90
2018-07-12T10:56:06.003Z,19.90
2018-07-12T10:57:08.518Z,19.90
2018-07-12T10:58:10.011Z,19.90
2018-07-12T10:59:05.712Z,19.90
2018-07-12T11:00:08.455Z,19.90
2018-07-12T11:01:05.961Z,19.90
2018-07-12T11:02:05.873Z,20.00
2018-07-12T11:03:05.241Z,20.00
2018-07-12T11:04:10.910Z,20.00
2018-07-12T11:05:07.776Z,20.00
2018-07-12T11:06:05.185Z,20.00
2018-07-12T11:07:06.017Z,20.10
2018-07-12T11:08:06.184Z,20.10
2018-07-12T11:09:08.397Z,20.10
2018-07-12T11:10:11.106Z,20.10
2018-07-12T11:11:05.312Z,20.10
2018-07-12T11:12:10.857Z,20.10
2018-07-12T11:13:05.354Z,20.10
2018-07-12T11:14:06.168Z,20.10
2018-07-12T11:15:08.263Z,20.10
2018-07-12T11:16:08.801Z,20.10
2018-07-12T11:17:10.344Z,20.10
2018-07-12T11:18:05.645Z,20.10
2018-07-12T11:19:05.060Z,20.10
2018-07-12T11:20:05.478Z,20.10
2018-07-12T11:21:05.982Z,20.20
2018-07-12T11:22:10.177Z,20.30
2018-07-12T11:23:05.324Z,20.20
2018-07-12T11:24:06.152Z,20.30
2018-07-12T11:25:06.018Z,20.30
2018-07-12T11:26:05.914Z,20.40
2018-07-12T11:27:06.075Z,20.40
2018-07-12T11:28:05.694Z,20.50
2018-07-12T11:29:06.040Z,20.50
2018-07-12T11:30:10.719Z,20.60
2018-07-12T11:31:06.153Z,20.60
2018-07-12T11:32:10.984Z,20.70
2018-07-12T11:33:05.366Z,20.70
2018-07-12T11:34:05.517Z,20.70
2018-07-12T11:35:09.301Z,20.80
2018-07-12T11:36:05.639Z,20.80
2018-07-12T11:37:08.808Z,20.90
2018-07-12T11:38:10.834Z,20.90
2018-07-12T11:39:08.456Z,21.00
2018-07-12T11:40:08.381Z,21.10
2018-07-12T11:41:06.032Z,21.20
2018-07-12T11:42:05.362Z,21.20
2018-07-12T11:43:11.120Z,21.30
2018-07-12T11:44:05.472Z,21.40
2018-07-12T11:45:05.761Z,21.50
2018-07-12T11:46:05.419Z,21.60
2018-07-12T11:47:05.213Z,21.70
2018-07-12T11:48:08.462Z,21.80
2018-07-12T11:49:05.860Z,21.80
2018-07-12T11:50:08.717Z,22.00
2018-07-12T11:51:05.147Z,22.00
2018-07-12T11:52:06.181Z,22.10
2018-07-12T11:53:08.628Z,22.30
2018-07-12T11:54:05.270Z,22.20
2018-07-12T11:55:10.646Z,22.40
2018-07-12T11:56:06.065Z,22.40
2018-07-12T11:57:10.902Z,22.50
2018-07-12T11:58:10.195Z,22.60
2018-07-12T11:59:05.233Z,22.60
2018-07-12T12:00:05.063Z,22.70
2018-07-12T12:01:05.664Z,22.80
2018-07-12T12:02:05.554Z,22.80
2018-07-12T12:03:09.336Z,22.90
2018-07-12T12:04:09.269Z,22.90
2018-07-12T12:05:09.057Z,22.90
2018-07-12T12:06:06.108Z,22.90
2018-07-12T12:07:08.626Z,22.80
2018-07-12T12:08:05.977Z,22.80
2018-07-12T12:09:10.678Z,22.70
2018-07-12T12:10:05.621Z,22.70
2018-07-12T12:11:05.547Z,22.70
2018-07-12T12:12:05.644Z,22.60
2018-07-12T12:13:05.444Z,22.70
2018-07-12T12:14:08.713Z,22.70
2018-07-12T12:15:08.455Z,22.70
2018-07-12T12:16:13.381Z,22.70
2018-07-12T12:17:13.512Z,22.70
2018-07-12T12:18:05.903Z,22.70
2018-07-12T12:19:05.437Z,22.80
2018-07-12T12:20:05.230Z,22.80
2018-07-12T12:21:05.607Z,22.80
2018-07-12T12:22:05.638Z,22.90
2018-07-12T12:23:06.331Z,23.00
2018-07-12T12:24:05.595Z,23.00
2018-07-12T12:25:07.074Z,23.10
2018-07-12T12:26:05.916Z,23.10
2018-07-12T12:27:10.938Z,23.20
2018-07-12T12:28:09.411Z,23.40
2018-07-12T12:29:05.975Z,23.30
2018-07-12T12:30:05.343Z,23.40
2018-07-12T12:31:05.765Z,23.40
2018-07-12T12:32:08.376Z,23.30
2018-07-12T12:33:10.899Z,23.20
2018-07-12T12:34:05.985Z,23.20
2018-07-12T12:35:05.609Z,23.20
2018-07-12T12:36:05.487Z,23.10
2018-07-12T12:37:06.357Z,23.00
2018-07-12T12:38:08.701Z,22.80
2018-07-12T12:39:05.565Z,22.80
2018-07-12T12:40:05.377Z,22.80
2018-07-12T12:41:05.528Z,22.70
2018-07-12T12:42:07.874Z,22.50
2018-07-12T12:43:10.645Z,22.60
2018-07-12T12:44:06.105Z,22.50
2018-07-12T12:45:05.319Z,22.40
2018-07-12T12:46:06.507Z,22.40
2018-07-12T12:47:08.777Z,22.20
2018-07-12T12:48:05.602Z,22.20
2018-07-12T12:49:05.591Z,22.20
2018-07-12T12:50:05.997Z,22.20
2018-07-12T12:51:05.600Z,22.10
2018-07-12T12:52:05.107Z,22.10